Time;durP1;ratioP1;P1;durP2;ratioP2;P2;SDS_P1;SDS_P2;PMS_P1;PMS_P2;Temp;Humidity;BMP_temperature;BMP_pressure;BME280_temperature;BME280_humidity;BME280_pressure;Samples;Min_cycle;Max_cycle;Signal;HPM_P1;HPM_P2
2023/12/29 00:00:36;;;;;;;7.35;0.98;;;;;;;-146.25;100.00;52611.50;2089167;28;21037;-72
2023/12/29 00:01:38;;;;;;;11.02;0.95;;;;;;;-146.25;100.00;52573.00;2089099;28;34878;-72
2023/12/29 00:02:40;;;;;;;8.70;1.10;;;;;;;-146.25;100.00;52550.69;2097449;28;38069;-72
2023/12/29 00:03:41;;;;;;;7.20;0.77;;;;;;;-146.25;100.00;52568.94;2097718;28;34797;-72
2023/12/29 00:04:44;;;;;;;7.50;0.90;;;;;;;-146.25;100.00;52597.31;2097270;28;35002;-72
2023/12/29 00:05:45;;;;;;;9.80;0.77;;;;;;;-146.25;100.00;52560.81;2097846;28;32278;-71
2023/12/29 00:06:48;;;;;;;11.57;1.60;;;;;;;-146.25;100.00;52591.25;2097673;28;20045;-72
2023/12/29 00:07:54;;;;;;;9.80;1.10;;;;;;;-146.25;100.00;52589.22;2095069;28;36236;-72
2023/12/29 00:08:56;;;;;;;4.97;0.63;;;;;;;-146.25;100.00;52575.00;2094619;28;33271;-72
2023/12/29 00:09:58;;;;;;;8.38;0.77;;;;;;;-146.25;100.00;52546.63;2097204;28;36868;-72
2023/12/29 00:10:59;;;;;;;6.10;0.77;;;;;;;-146.25;100.00;52617.59;2097611;28;32508;-72
2023/12/29 00:12:01;;;;;;;6.53;0.75;;;;;;;-146.25;100.00;52570.97;2098414;28;20048;-73
2023/12/29 00:13:03;;;;;;;7.95;1.00;;;;;;;-146.25;100.00;52566.91;2094937;28;37434;-72
2023/12/29 00:14:07;;;;;;;7.07;1.30;;;;;;;-146.25;100.00;52558.78;2089234;28;35295;-72
2023/12/29 00:15:10;;;;;;;8.77;1.10;;;;;;;-146.25;100.00;52585.16;2088198;28;34572;-72
2023/12/29 00:16:12;;;;;;;9.50;0.95;;;;;;;-146.25;100.00;52570.97;2096055;28;32877;-72
2023/12/29 00:17:15;;;;;;;9.80;1.50;;;;;;;-146.25;100.00;52591.25;2098497;28;20142;-72
2023/12/29 00:18:16;;;;;;;10.02;1.02;;;;;;;-146.25;100.00;52595.28;2097427;28;35568;-72
2023/12/29 00:19:18;;;;;;;7.07;1.10;;;;;;;-146.25;100.00;52605.44;2097055;28;31270;-72
2023/12/29 00:20:23;;;;;;;12.00;1.00;;;;;;;-146.25;100.00;52542.56;2098439;28;20153;-72
2023/12/29 00:21:33;;;;;;;11.35;1.10;;;;;;;-146.25;100.00;52558.78;2096906;28;36819;-72
2023/12/29 00:22:35;;;;;;;10.85;1.38;;;;;;;-146.25;100.00;52562.84;2098380;28;20056;-72
2023/12/29 00:23:37;;;;;;;11.70;1.38;;;;;;;-146.25;100.00;52556.75;2097201;28;37901;-72
2023/12/29 00:24:39;;;;;;;7.68;0.88;;;;;;;-146.25;100.00;52591.25;2096058;28;33665;-73
2023/12/29 00:25:41;;;;;;;9.07;1.13;;;;;;;-146.25;100.00;52579.06;2093931;28;32848;-72
2023/12/29 00:26:44;;;;;;;8.93;1.08;;;;;;;-146.25;100.00;52603.41;2097551;28;36718;-71
2023/12/29 00:27:46;;;;;;;6.30;1.00;;;;;;;-146.25;100.00;52591.25;2097621;28;20064;-72
2023/12/29 00:28:48;;;;;;;7.53;0.93;;;;;;;-146.25;100.00;52583.13;2097893;28;31560;-71
2023/12/29 00:29:50;;;;;;;12.30;1.33;;;;;;;-146.25;100.00;52611.50;2097592;28;26613;-71
2023/12/29 00:30:52;;;;;;;8.55;1.00;;;;;;;-146.25;100.00;52568.94;2097665;28;25115;-72
2023/12/29 00:32:02;;;;;;;12.45;1.17;;;;;;;-146.25;100.00;52579.06;2097516;28;25828;-71
2023/12/29 00:33:05;;;;;;;9.38;1.35;;;;;;;-146.25;100.00;52593.25;2098430;28;20095;-72
2023/12/29 00:34:07;;;;;;;7.30;1.02;;;;;;;-146.25;100.00;52599.34;2088611;28;20053;-71
2023/12/29 00:35:09;;;;;;;9.00;1.25;;;;;;;-146.25;100.00;52591.25;2088981;28;21216;-71
2023/12/29 00:36:16;;;;;;;12.48;1.15;;;;;;;-146.25;100.00;52607.47;2088824;28;26783;-71
2023/12/29 00:37:20;;;;;;;7.50;1.13;;;;;;;-146.25;100.00;52591.25;2088909;28;20871;-72
2023/12/29 00:38:22;;;;;;;8.57;0.90;;;;;;;-146.25;100.00;52599.34;2088352;28;30973;-71
2023/12/29 00:39:28;;;;;;;5.60;1.08;;;;;;;-146.25;100.00;52585.16;2089123;28;27002;-72
2023/12/29 00:40:33;;;;;;;5.97;0.65;;;;;;;-146.25;100.00;52556.75;2089157;28;20349;-71
2023/12/29 00:41:40;;;;;;;7.15;1.02;;;;;;;-146.25;100.00;52554.75;2088550;28;30049;-72
2023/12/29 00:42:44;;;;;;;9.45;0.70;;;;;;;-146.25;100.00;52587.19;2080194;28;31541;-71
2023/12/29 00:43:46;;;;;;;7.28;0.85;;;;;;;-146.25;100.00;52621.66;2080674;28;26164;-71
2023/12/29 00:44:49;;;;;;;10.55;0.73;;;;;;;-146.25;100.00;52579.06;2089177;28;20837;-71
2023/12/29 00:45:56;;;;;;;8.57;1.23;;;;;;;-146.25;100.00;52591.25;2089504;28;20103;-70
2023/12/29 00:46:59;;;;;;;5.72;1.05;;;;;;;-146.25;100.00;52587.19;2088998;28;30407;-71
2023/12/29 00:48:01;;;;;;;8.63;0.73;;;;;;;-146.25;100.00;52562.84;2088687;28;20053;-69
2023/12/29 00:49:04;;;;;;;7.03;0.80;;;;;;;-146.25;100.00;52587.19;2088751;28;20223;-70
2023/12/29 00:50:07;;;;;;;9.18;0.90;;;;;;;-146.25;100.00;52587.19;2080421;28;20049;-71
2023/12/29 00:51:09;;;;;;;11.43;1.05;;;;;;;-146.25;100.00;52566.91;2079780;28;31927;-70
2023/12/29 00:52:11;;;;;;;10.50;0.90;;;;;;;-146.25;100.00;52570.97;2080510;28;20876;-69
2023/12/29 00:53:12;;;;;;;10.13;0.88;;;;;;;-146.25;100.00;52607.47;2080567;28;26477;-71
2023/12/29 00:54:15;;;;;;;6.93;0.70;;;;;;;-146.25;100.00;52564.88;2088128;28;26778;-70
2023/12/29 00:55:17;;;;;;;5.03;0.63;;;;;;;-146.25;100.00;52601.38;2088456;28;27032;-70
2023/12/29 00:56:19;;;;;;;5.80;0.80;;;;;;;-146.25;100.00;52581.09;2092510;28;28414;-70
2023/12/29 00:57:20;;;;;;;5.93;0.88;;;;;;;-146.25;100.00;52589.22;2088273;28;32126;-71
2023/12/29 00:58:25;;;;;;;8.40;0.82;;;;;;;-146.25;100.00;52609.50;2089323;28;21478;-68
2023/12/29 00:59:27;;;;;;;7.28;0.88;;;;;;;-146.25;100.00;52560.81;2097567;28;20053;-71
2023/12/29 01:00:29;;;;;;;5.68;0.90;;;;;;;-146.25;100.00;52591.25;2097558;28;27553;-70
2023/12/29 01:01:35;;;;;;;6.20;0.93;;;;;;;-146.25;100.00;52595.28;2097678;28;27599;-70
2023/12/29 01:02:37;;;;;;;4.88;0.80;;;;;;;-146.25;100.00;52566.91;2098308;28;20071;-71
2023/12/29 01:03:40;;;;;;;5.65;0.80;;;;;;;-146.25;100.00;52603.41;2097451;28;20092;-70
2023/12/29 01:04:41;;;;;;;7.43;0.88;;;;;;;-146.25;100.00;52587.19;2097411;28;27246;-70
2023/12/29 01:05:44;;;;;;;5.55;0.60;;;;;;;-146.25;100.00;52544.59;2097380;28;20037;-71
2023/12/29 01:06:46;;;;;;;6.25;0.68;;;;;;;-146.25;100.00;52595.28;2084415;28;32106;-70
2023/12/29 01:07:49;;;;;;;9.82;1.00;;;;;;;-146.25;100.00;52583.13;2087871;28;21102;-70
2023/12/29 01:08:52;;;;;;;9.38;0.63;;;;;;;-146.25;100.00;52611.50;2097718;28;20131;-70
2023/12/29 01:09:56;;;;;;;4.25;0.70;;;;;;;-146.25;100.00;52617.59;2097867;28;20110;-71
2023/12/29 01:10:58;;;;;;;5.53;1.17;;;;;;;-146.25;100.00;52585.16;2088321;28;20026;-70
2023/12/29 01:12:03;;;;;;;4.38;0.68;;;;;;;-146.25;100.00;52645.97;2088468;28;24021;-71
2023/12/29 01:13:05;;;;;;;5.88;0.85;;;;;;;-146.25;100.00;52575.00;2088682;28;21046;-68
2023/12/29 01:14:07;;;;;;;5.85;0.82;;;;;;;-146.25;100.00;52619.63;2088640;28;25268;-71
2023/12/29 01:15:09;;;;;;;4.65;1.00;;;;;;;-146.25;100.00;52566.91;2096259;28;24845;-70
2023/12/29 01:16:11;;;;;;;9.07;1.10;;;;;;;-146.25;100.00;52587.19;2096848;28;30188;-70
2023/12/29 01:17:13;;;;;;;6.03;0.70;;;;;;;-146.25;100.00;52599.34;2088120;28;26181;-70
2023/12/29 01:18:15;;;;;;;7.95;0.70;;;;;;;-146.25;100.00;52625.72;2088306;28;25839;-71
2023/12/29 01:19:16;;;;;;;5.13;1.08;;;;;;;-146.25;100.00;52579.06;2096991;28;31360;-70
2023/12/29 01:20:18;;;;;;;6.60;0.90;;;;;;;-146.25;100.00;52611.50;2097602;28;27630;-71
2023/12/29 01:21:20;;;;;;;8.18;0.70;;;;;;;-146.25;100.00;52579.06;2097260;28;23761;-70
2023/12/29 01:22:22;;;;;;;11.02;1.52;;;;;;;-146.25;100.00;52601.38;2088683;28;20974;-71
2023/12/29 01:23:24;;;;;;;4.82;0.60;;;;;;;-146.25;100.00;52585.16;2088615;28;20636;-70
2023/12/29 01:24:25;;;;;;;7.57;1.00;;;;;;;-146.25;100.00;52607.47;2098004;28;22923;-70
2023/12/29 01:25:33;;;;;;;6.05;0.70;;;;;;;-146.25;100.00;52593.25;2097014;28;27367;-70
2023/12/29 01:26:39;;;;;;;5.85;0.80;;;;;;;-146.25;100.00;52593.25;2097365;28;27050;-71
2023/12/29 01:27:40;;;;;;;5.80;0.63;;;;;;;-146.25;100.00;52607.47;2097080;28;22626;-70
2023/12/29 01:28:42;;;;;;;7.97;0.70;;;;;;;-146.25;100.00;52570.97;2088793;28;20399;-71
2023/12/29 01:29:45;;;;;;;4.53;1.00;;;;;;;-146.25;100.00;52615.56;2080028;28;20881;-71
2023/12/29 01:30:49;;;;;;;6.13;1.00;;;;;;;-146.25;100.00;52577.03;2088329;28;31065;-71
2023/12/29 01:31:51;;;;;;;5.93;0.80;;;;;;;-146.25;100.00;52629.75;2088449;28;20045;-70
2023/12/29 01:32:52;;;;;;;5.63;0.73;;;;;;;-146.25;100.00;52587.19;2088204;28;27470;-71
2023/12/29 01:33:54;;;;;;;7.60;0.93;;;;;;;-146.25;100.00;52591.25;2088521;28;20177;-71
2023/12/29 01:34:56;;;;;;;7.35;0.70;;;;;;;-146.25;100.00;52591.25;2088348;28;27733;-71
2023/12/29 01:35:58;;;;;;;5.85;0.68;;;;;;;-146.25;100.00;52577.03;2097287;28;20171;-70
2023/12/29 01:37:05;;;;;;;7.45;0.82;;;;;;;-146.25;100.00;52581.09;2088223;28;25437;-69
2023/12/29 01:38:09;;;;;;;7.25;0.95;;;;;;;-146.25;100.00;52597.31;2088299;28;25543;-69
2023/12/29 01:39:11;;;;;;;5.88;0.65;;;;;;;-146.25;100.00;52579.06;2088293;28;28879;-68
2023/12/29 01:40:13;;;;;;;4.50;0.57;;;;;;;-146.25;100.00;52558.78;2087828;28;31698;-70
2023/12/29 01:41:16;;;;;;;6.70;0.60;;;;;;;-146.25;100.00;52603.41;2084053;28;30988;-71
2023/12/29 01:42:17;;;;;;;8.65;0.73;;;;;;;-146.25;100.00;52597.31;2080028;28;26888;-69
2023/12/29 01:43:22;;;;;;;6.78;0.60;;;;;;;-146.25;100.00;52609.50;2089155;28;20126;-71
2023/12/29 01:44:24;;;;;;;5.93;0.50;;;;;;;-146.25;100.00;52597.31;2088560;28;26680;-70
2023/12/29 01:45:26;;;;;;;5.20;0.52;;;;;;;-146.25;100.00;52599.34;2088875;28;27296;-70
2023/12/29 01:46:33;;;;;;;7.25;0.82;;;;;;;-146.25;100.00;52599.34;2088415;28;23284;-69
2023/12/29 01:47:35;;;;;;;5.50;0.57;;;;;;;-146.25;100.00;52560.81;2080246;28;20042;-71
2023/12/29 01:48:36;;;;;;;5.25;0.57;;;;;;;-146.25;100.00;52621.66;2079892;28;28201;-71
2023/12/29 01:49:41;;;;;;;3.30;0.40;;;;;;;-146.25;100.00;52603.41;2088686;28;28244;-70
2023/12/29 01:50:45;;;;;;;3.92;0.30;;;;;;;-146.25;100.00;52593.25;2088283;28;33404;-71
2023/12/29 01:51:54;;;;;;;3.25;0.80;;;;;;;-146.25;100.00;52583.13;2079788;28;31604;-71
2023/12/29 01:52:58;;;;;;;5.13;0.40;;;;;;;-146.25;100.00;52599.34;2065433;28;20047;-71
2023/12/29 01:54:01;;;;;;;7.43;0.70;;;;;;;-146.25;100.00;52589.22;2074232;28;20030;-71
2023/12/29 01:55:03;;;;;;;4.50;0.60;;;;;;;-146.25;100.00;52613.53;2087818;28;28601;-71
2023/12/29 01:56:07;;;;;;;4.43;0.30;;;;;;;-146.25;100.00;52593.25;2080209;28;27083;-70
2023/12/29 01:57:11;;;;;;;5.18;0.45;;;;;;;-146.25;100.00;52617.59;2080783;28;20100;-71
2023/12/29 01:58:14;;;;;;;3.55;0.30;;;;;;;-146.25;100.00;52599.34;2079553;28;20096;-71
2023/12/29 01:59:19;;;;;;;2.35;0.30;;;;;;;-146.25;100.00;52575.00;2080518;28;20883;-71
2023/12/29 02:00:27;;;;;;;7.70;0.60;;;;;;;-146.25;100.00;52611.50;2088585;28;20041;-70
2023/12/29 02:01:30;;;;;;;4.38;0.70;;;;;;;-146.25;100.00;52583.13;2088279;28;22773;-71
2023/12/29 02:02:34;;;;;;;4.15;0.40;;;;;;;-146.25;100.00;52589.22;2088666;28;20073;-71
2023/12/29 02:03:37;;;;;;;5.50;0.60;;;;;;;-146.25;100.00;52593.25;2087956;28;23514;-71
2023/12/29 02:04:40;;;;;;;5.30;0.50;;;;;;;-146.25;100.00;52581.09;2079974;28;24308;-71
2023/12/29 02:05:44;;;;;;;4.45;0.60;;;;;;;-146.25;100.00;52591.25;2087692;28;29926;-71
2023/12/29 02:06:45;;;;;;;13.23;0.85;;;;;;;-146.25;100.00;52611.50;2087992;28;26091;-70
2023/12/29 02:07:51;;;;;;;8.00;0.73;;;;;;;-146.25;100.00;52591.25;2088005;28;26060;-70
2023/12/29 02:08:53;;;;;;;7.07;0.80;;;;;;;-146.25;100.00;52575.00;2096692;28;33142;-71
2023/12/29 02:09:54;;;;;;;7.20;1.20;;;;;;;-146.25;100.00;52603.41;2096751;28;26356;-71
2023/12/29 02:10:56;;;;;;;6.05;0.70;;;;;;;-146.25;100.00;52591.25;2097510;28;22218;-71
2023/12/29 02:11:58;;;;;;;9.02;0.73;;;;;;;-146.25;100.00;52601.38;2096640;28;33132;-71
2023/12/29 02:13:00;;;;;;;9.38;0.82;;;;;;;-146.25;100.00;52566.91;2096759;28;23422;-72
2023/12/29 02:14:02;;;;;;;7.32;0.90;;;;;;;-146.25;100.00;52591.25;2087901;28;25285;-72
2023/12/29 02:15:08;;;;;;;6.57;0.80;;;;;;;-146.25;100.00;52558.78;2088126;28;28229;-71
2023/12/29 02:16:39;;;;;;;10.18;1.10;;;;;;;-146.25;100.00;52542.56;2096494;28;23373;-71
2023/12/29 02:17:50;;;;;;;4.90;0.60;;;;;;;-146.25;100.00;52603.41;2096959;28;30248;-71
2023/12/29 02:18:54;;;;;;;6.18;0.85;;;;;;;-146.25;100.00;52544.59;2088432;28;20061;-71
2023/12/29 02:19:57;;;;;;;9.93;0.95;;;;;;;-146.25;100.00;52591.25;2087632;28;24633;-70
2023/12/29 02:20:58;;;;;;;8.40;1.13;;;;;;;-146.25;100.00;52599.34;2079840;28;30421;-71
2023/12/29 02:22:00;;;;;;;11.98;1.27;;;;;;;-146.25;100.00;52581.09;2087879;28;23589;-70
2023/12/29 02:23:04;;;;;;;8.30;0.93;;;;;;;-146.25;100.00;52593.25;2088492;28;20048;-72
2023/12/29 02:24:06;;;;;;;8.02;0.90;;;;;;;-146.25;100.00;52581.09;2088450;28;20069;-70
2023/12/29 02:25:09;;;;;;;8.55;1.23;;;;;;;-146.25;100.00;52603.41;2096814;28;20106;-71
2023/12/29 02:26:15;;;;;;;7.45;0.90;;;;;;;-146.25;100.00;52603.41;2096827;28;27612;-71
2023/12/29 02:27:46;;;;;;;9.55;1.25;;;;;;;-146.25;100.00;52603.41;2079691;28;30993;-71
2023/12/29 02:28:59;;;;;;;;;;;;;;;-146.25;100.00;52589.22;2089685;28;20052;-70
2023/12/29 02:30:26;;;;;;;6.85;1.02;;;;;;;-146.25;100.00;52566.91;2097339;28;19917;-70
2023/12/29 02:31:30;;;;;;;6.68;0.90;;;;;;;-146.25;100.00;52603.41;2088731;28;20894;-70
2023/12/29 02:32:33;;;;;;;8.45;0.68;;;;;;;-146.25;100.00;52587.19;2087949;28;20135;-70
2023/12/29 02:33:43;;;;;;;9.70;1.20;;;;;;;-146.25;100.00;52597.31;2088344;28;28582;-71
2023/12/29 02:34:51;;;;;;;6.68;0.90;;;;;;;-146.25;100.00;52599.34;2087766;28;29633;-69
2023/12/29 02:36:00;;;;;;;10.23;1.50;;;;;;;-146.25;100.00;52595.28;2088351;28;20997;-70
2023/12/29 02:37:03;;;;;;;6.03;1.13;;;;;;;-146.25;100.00;52619.63;2088132;28;20037;-71
2023/12/29 02:38:05;;;;;;;7.70;0.98;;;;;;;-146.25;100.00;52607.47;2089116;28;22310;-71
2023/12/29 02:39:07;;;;;;;7.32;0.70;;;;;;;-146.25;100.00;52591.25;2096940;28;21216;-70
2023/12/29 02:40:09;;;;;;;9.10;0.95;;;;;;;-146.25;100.00;52585.16;2097054;28;22634;-70
2023/12/29 02:41:13;;;;;;;7.32;0.80;;;;;;;-146.25;100.00;52562.84;2087810;28;27591;-70
2023/12/29 02:42:15;;;;;;;6.47;0.85;;;;;;;-146.25;100.00;52595.28;2080855;28;20038;-70
2023/12/29 02:43:17;;;;;;;6.32;0.98;;;;;;;-146.25;100.00;52613.53;2087472;28;33615;-71
2023/12/29 02:44:19;;;;;;;7.43;0.80;;;;;;;-146.25;100.00;52573.00;2096475;28;20056;-71
2023/12/29 02:45:20;;;;;;;7.15;0.85;;;;;;;-146.25;100.00;52575.00;2096777;28;28688;-71
2023/12/29 02:46:22;;;;;;;8.00;0.88;;;;;;;-146.25;100.00;52591.25;2096207;28;34213;-71
2023/12/29 02:47:26;;;;;;;8.27;0.88;;;;;;;-146.25;100.00;52583.13;2096663;28;20083;-69
2023/12/29 02:48:28;;;;;;;5.82;0.80;;;;;;;-146.25;100.00;52562.84;2097406;28;20044;-70
2023/12/29 02:49:30;;;;;;;9.55;0.82;;;;;;;-146.25;100.00;52579.06;2096177;28;29807;-71
2023/12/29 02:50:32;;;;;;;11.20;0.88;;;;;;;-146.25;100.00;52603.41;2088016;28;22520;-71
2023/12/29 02:51:34;;;;;;;7.95;0.90;;;;;;;-146.25;100.00;52577.03;2078910;28;26668;-71
2023/12/29 02:52:36;;;;;;;9.07;1.00;;;;;;;-146.25;100.00;52577.03;2087828;28;25589;-71
2023/12/29 02:53:38;;;;;;;7.22;0.88;;;;;;;-146.25;100.00;52568.94;2087465;28;34264;-71
2023/12/29 02:54:42;;;;;;;7.68;1.02;;;;;;;-146.25;100.00;52568.94;2087377;28;32661;-70
2023/12/29 02:55:45;;;;;;;5.63;1.00;;;;;;;-146.25;100.00;52597.31;2096726;28;20103;-70
2023/12/29 02:56:49;;;;;;;7.68;0.90;;;;;;;-146.25;100.00;52575.00;2097642;28;27231;-71
2023/12/29 02:57:51;;;;;;;11.32;1.20;;;;;;;-146.25;100.00;52625.72;2094610;28;21851;-71
2023/12/29 02:58:52;;;;;;;8.48;1.25;;;;;;;-146.25;100.00;52609.50;2088120;28;34116;-71
2023/12/29 02:59:54;;;;;;;8.43;1.27;;;;;;;-146.25;100.00;52613.53;2088310;28;21188;-71
2023/12/29 03:00:57;;;;;;;9.23;1.25;;;;;;;-146.25;100.00;52552.72;2087067;28;20042;-71
2023/12/29 03:01:58;;;;;;;7.40;1.13;;;;;;;-146.25;100.00;52591.25;2087375;28;31967;-71
2023/12/29 03:03:02;;;;;;;8.98;1.42;;;;;;;-146.25;100.00;52593.25;2088906;28;20080;-71
2023/12/29 03:04:05;;;;;;;10.80;1.50;;;;;;;-146.25;100.00;52603.41;2088554;28;20053;-71
2023/12/29 03:05:07;;;;;;;5.18;2.20;;;;;;;-146.25;100.00;52587.19;2079466;28;32583;-71
2023/12/29 03:06:08;;;;;;;10.73;1.67;;;;;;;-146.25;100.00;52601.38;2079726;28;23655;-71
2023/12/29 03:07:10;;;;;;;9.18;1.63;;;;;;;-146.25;100.00;52591.25;2088483;28;22895;-72
2023/12/29 03:08:12;;;;;;;8.23;1.73;;;;;;;-146.25;100.00;52556.75;2087854;28;31536;-72
2023/12/29 03:09:14;;;;;;;7.70;1.48;;;;;;;-146.25;100.00;52556.75;2078965;28;25296;-72
2023/12/29 03:10:18;;;;;;;9.25;1.90;;;;;;;-146.25;100.00;52546.63;2078964;28;31658;-72
2023/12/29 03:11:22;;;;;;;10.57;1.95;;;;;;;-146.25;100.00;52518.25;2087828;28;30634;-71
2023/12/29 03:12:24;;;;;;;11.70;1.63;;;;;;;-146.25;100.00;52589.22;2087843;28;28659;-71
2023/12/29 03:13:26;;;;;;;7.10;1.73;;;;;;;-146.25;100.00;52575.00;2088776;28;27034;-71
2023/12/29 03:14:27;;;;;;;11.30;1.58;;;;;;;-146.25;100.00;52579.06;2087993;28;30631;-72
2023/12/29 03:15:29;;;;;;;2.78;0.50;;;;;;;-146.25;100.00;52617.59;2088567;28;20084;-71
2023/12/29 03:16:31;;;;;;;3.83;0.35;;;;;;;-146.25;100.00;52603.41;2088159;28;28556;-72
2023/12/29 03:17:33;;;;;;;4.00;0.20;;;;;;;-146.25;100.00;52577.03;2087655;28;29717;-71
2023/12/29 03:18:39;;;;;;;3.03;0.30;;;;;;;-146.25;100.00;52570.97;2087573;28;28826;-71
2023/12/29 03:19:44;;;;;;;2.78;0.20;;;;;;;-146.25;100.00;52619.63;2088786;28;20917;-71
2023/12/29 03:20:46;;;;;;;2.78;0.20;;;;;;;-146.25;100.00;52619.63;2079221;28;31635;-70
2023/12/29 03:21:48;;;;;;;5.55;0.30;;;;;;;-146.25;100.00;52623.69;2071112;28;26915;-70
2023/12/29 03:22:49;;;;;;;3.75;0.20;;;;;;;-146.25;100.00;52641.94;2079437;28;30242;-70
2023/12/29 03:23:51;;;;;;;4.70;0.30;;;;;;;-146.25;100.00;52641.94;2087969;28;22089;-70
2023/12/29 03:24:53;;;;;;;3.05;0.45;;;;;;;-146.25;100.00;52595.28;2087294;28;28226;-70
2023/12/29 03:25:55;;;;;;;5.00;0.30;;;;;;;-146.25;100.00;52587.19;2088506;28;26920;-71
2023/12/29 03:26:57;;;;;;;5.88;0.45;;;;;;;-146.25;100.00;52607.47;2088110;28;27248;-70
2023/12/29 03:28:00;;;;;;;6.80;0.30;;;;;;;-146.25;100.00;52577.03;2094077;28;21052;-69
2023/12/29 03:29:04;;;;;;;7.75;0.50;;;;;;;-146.25;100.00;52587.19;2096243;28;31737;-70
2023/12/29 03:30:07;;;;;;;8.07;0.50;;;;;;;-146.25;100.00;52562.84;2096753;28;28164;-69
2023/12/29 03:31:09;;;;;;;6.88;0.35;;;;;;;-146.25;100.00;52570.97;2095304;28;28214;-70
2023/12/29 03:32:11;;;;;;;6.47;0.38;;;;;;;-146.25;100.00;52587.19;2096310;28;29547;-70
2023/12/29 03:33:13;;;;;;;6.13;0.60;;;;;;;-146.25;100.00;52560.81;2096761;28;20049;-70
2023/12/29 03:34:14;;;;;;;6.78;0.43;;;;;;;-146.25;100.00;52575.00;2087501;28;23597;-70
2023/12/29 03:35:16;;;;;;;10.23;0.40;;;;;;;-146.25;100.00;52548.66;2087584;28;28007;-72
2023/12/29 03:36:18;;;;;;;11.73;0.40;;;;;;;-146.25;100.00;52621.66;2087975;28;20118;-71
2023/12/29 03:37:23;;;;;;;7.97;0.75;;;;;;;-146.25;100.00;52581.09;2087340;28;30926;-70
2023/12/29 03:38:25;;;;;;;8.65;0.57;;;;;;;-146.25;100.00;52568.94;2095674;28;33838;-70
2023/12/29 03:39:27;;;;;;;7.72;0.75;;;;;;;-146.25;100.00;52534.47;2095743;28;25104;-69
2023/12/29 03:40:29;;;;;;;11.07;0.60;;;;;;;-146.25;100.00;52558.78;2088059;28;29478;-70
2023/12/29 03:41:30;;;;;;;11.00;0.57;;;;;;;-146.25;100.00;52597.31;2086829;28;33762;-70
2023/12/29 03:42:32;;;;;;;11.55;0.80;;;;;;;-146.25;100.00;52546.63;2095929;28;25593;-70
2023/12/29 03:43:35;;;;;;;11.88;0.70;;;;;;;-146.25;100.00;52583.13;2087236;28;21011;-70
2023/12/29 03:44:37;;;;;;;11.77;0.82;;;;;;;-146.25;100.00;52566.91;2087728;28;31618;-71
2023/12/29 03:45:39;;;;;;;9.80;0.60;;;;;;;-146.25;100.00;52570.97;2096290;28;25685;-70
2023/12/29 03:46:44;;;;;;;16.02;0.90;;;;;;;-146.25;100.00;52599.34;2087886;28;20165;-71
2023/12/29 03:47:45;;;;;;;12.75;1.08;;;;;;;-146.25;100.00;52542.56;2087721;28;23435;-70
2023/12/29 03:48:49;;;;;;;13.07;1.23;;;;;;;-146.25;100.00;52550.69;2096863;28;20905;-72
2023/12/29 03:49:52;;;;;;;12.05;1.25;;;;;;;-146.25;100.00;52556.75;2096404;28;28091;-70
2023/12/29 03:50:53;;;;;;;12.05;1.10;;;;;;;-146.25;100.00;52587.19;2096482;28;30836;-70
2023/12/29 03:51:55;;;;;;;8.32;0.88;;;;;;;-146.25;100.00;52558.78;2095469;28;29003;-70
2023/12/29 03:52:57;;;;;;;11.30;1.80;;;;;;;-146.25;100.00;52573.00;2096132;28;32643;-70
2023/12/29 03:53:59;;;;;;;9.48;1.27;;;;;;;-146.25;100.00;52546.63;2096240;28;20408;-70
2023/12/29 03:55:00;;;;;;;11.35;1.20;;;;;;;-146.25;100.00;52552.72;2096092;28;31845;-70
2023/12/29 03:56:18;;;;;;;7.55;0.82;;;;;;;-146.25;100.00;52589.22;2096324;28;20079;-71
2023/12/29 03:57:20;;;;;;;7.97;0.70;;;;;;;-146.25;100.00;52526.34;2096265;28;29982;-71
2023/12/29 03:58:22;;;;;;;11.07;0.65;;;;;;;-146.25;100.00;52611.50;2087849;28;27229;-70
2023/12/29 03:59:26;;;;;;;9.02;0.47;;;;;;;-146.25;100.00;52595.28;2088466;28;21227;-69
2023/12/29 04:00:28;;;;;;;10.18;0.70;;;;;;;-146.25;100.00;52613.53;2096663;28;20926;-72
2023/12/29 04:01:33;;;;;;;7.38;0.77;;;;;;;-146.25;100.00;52597.31;2096661;28;29248;-70
2023/12/29 04:02:35;;;;;;;9.90;1.02;;;;;;;-146.25;100.00;52583.13;2079229;28;26339;-71
2023/12/29 04:03:37;;;;;;;7.85;0.82;;;;;;;-146.25;100.00;52619.63;2080360;28;26732;-70
2023/12/29 04:04:39;;;;;;;9.93;0.70;;;;;;;-146.25;100.00;52573.00;2095806;28;24137;-70
2023/12/29 04:05:41;;;;;;;8.15;1.05;;;;;;;-146.25;100.00;52607.47;2087153;28;29770;-70
2023/12/29 04:06:43;;;;;;;13.00;1.23;;;;;;;-146.25;100.00;52597.31;2087761;28;20800;-70
2023/12/29 04:07:45;;;;;;;12.60;1.27;;;;;;;-146.25;100.00;52597.31;2096657;28;27296;-70
2023/12/29 04:08:47;;;;;;;12.40;1.08;;;;;;;-146.25;100.00;52583.13;2096170;28;28230;-70
2023/12/29 04:09:48;;;;;;;8.30;1.25;;;;;;;-146.25;100.00;52589.22;2096349;28;25534;-70
2023/12/29 04:10:50;;;;;;;9.50;1.00;;;;;;;-146.25;100.00;52589.22;2095809;28;35544;-70
2023/12/29 04:11:53;;;;;;;11.43;1.20;;;;;;;-146.25;100.00;52556.75;2096921;28;20089;-70
2023/12/29 04:12:56;;;;;;;6.68;1.05;;;;;;;-146.25;100.00;52554.75;2087550;28;20037;-70
2023/12/29 04:13:57;;;;;;;9.75;1.00;;;;;;;-146.25;100.00;52570.97;2087657;28;24701;-71
2023/12/29 04:14:59;;;;;;;12.57;1.58;;;;;;;-146.25;100.00;52577.03;2096087;28;26251;-70
2023/12/29 04:16:01;;;;;;;13.95;1.50;;;;;;;-146.25;100.00;52556.75;2096087;28;31696;-71
2023/12/29 04:17:05;;;;;;;13.27;1.13;;;;;;;-146.25;100.00;52597.31;2095406;28;33121;-71
2023/12/29 04:18:06;;;;;;;12.90;1.40;;;;;;;-146.25;100.00;52570.97;2095981;28;23082;-69
2023/12/29 04:19:11;;;;;;;8.23;1.25;;;;;;;-146.25;100.00;52558.78;2096476;28;20080;-70
2023/12/29 04:20:14;;;;;;;11.70;1.50;;;;;;;-146.25;100.00;52562.84;2096127;28;32180;-70
2023/12/29 04:21:16;;;;;;;10.52;1.80;;;;;;;-146.25;100.00;52562.84;2087203;28;22987;-70
2023/12/29 04:22:20;;;;;;;12.02;1.90;;;;;;;-146.25;100.00;52579.06;2087195;28;25721;-71
2023/12/29 04:23:22;;;;;;;11.95;1.80;;;;;;;-146.25;100.00;52605.44;2095962;28;33118;-70
2023/12/29 04:24:25;;;;;;;11.20;1.65;;;;;;;-146.25;100.00;52570.97;2096764;28;20049;-71
2023/12/29 04:25:26;;;;;;;11.73;1.70;;;;;;;-146.25;100.00;52566.91;2096839;28;20087;-69
2023/12/29 04:26:28;;;;;;;7.82;1.63;;;;;;;-146.25;100.00;52568.94;2096280;28;33312;-70
2023/12/29 04:27:30;;;;;;;9.90;2.42;;;;;;;-146.25;100.00;52579.06;2095602;28;30383;-70
2023/12/29 04:28:32;;;;;;;8.80;2.20;;;;;;;-146.25;100.00;52556.75;2096639;28;25534;-70
2023/12/29 04:29:33;;;;;;;10.48;2.38;;;;;;;-146.25;100.00;52566.91;2095865;28;31852;-70
2023/12/29 04:30:36;;;;;;;12.13;2.50;;;;;;;-146.25;100.00;52548.66;2096998;28;20115;-70
2023/12/29 04:31:38;;;;;;;17.48;3.10;;;;;;;-146.25;100.00;52558.78;2096000;28;32800;-71
2023/12/29 04:32:40;;;;;;;9.88;2.72;;;;;;;-146.25;100.00;52558.78;2095492;28;35094;-70
2023/12/29 04:33:41;;;;;;;17.23;4.13;;;;;;;-146.25;100.00;52562.84;2096535;28;20044;-71
2023/12/29 04:34:43;;;;;;;20.20;4.18;;;;;;;-146.25;100.00;52564.88;2096678;28;26539;-70
2023/12/29 04:35:45;;;;;;;23.00;5.15;;;;;;;-146.25;100.00;52568.94;2096043;28;21355;-70
2023/12/29 04:36:48;;;;;;;16.77;4.63;;;;;;;-146.25;100.00;52579.06;2096430;28;20168;-70
2023/12/29 04:37:51;;;;;;;20.52;4.45;;;;;;;-146.25;100.00;52558.78;2079179;28;20160;-70
2023/12/29 04:38:52;;;;;;;19.13;4.03;;;;;;;-146.25;100.00;52589.22;2071608;28;20030;-71
2023/12/29 04:39:56;;;;;;;21.48;4.30;;;;;;;-146.25;100.00;52581.09;2079141;28;20803;-71
2023/12/29 04:40:58;;;;;;;23.58;4.68;;;;;;;-146.25;100.00;52556.75;2087623;28;28888;-71
2023/12/29 04:42:00;;;;;;;23.33;5.90;;;;;;;-146.25;100.00;52587.19;2087147;28;22012;-71
2023/12/29 04:43:01;;;;;;;19.40;4.85;;;;;;;-146.25;100.00;52585.16;2088680;28;25244;-71
2023/12/29 04:44:03;;;;;;;23.65;4.78;;;;;;;-146.25;100.00;52570.97;2096678;28;38268;-71
2023/12/29 04:45:05;;;;;;;19.92;4.57;;;;;;;-146.25;100.00;52566.91;2097313;28;35113;-71
2023/12/29 04:46:07;;;;;;;23.25;4.70;;;;;;;-146.25;100.00;52579.06;2097339;28;31594;-71